createdAt,value
2023-04-17T00:00:07.661Z,1.40
2023-04-17T00:02:36.930Z,1.50
2023-04-17T00:05:13.580Z,1.58
2023-04-17T00:07:44.417Z,1.30
2023-04-17T00:10:18.255Z,1.62
2023-04-17T00:12:45.760Z,1.20
2023-04-17T00:15:19.752Z,1.62
2023-04-17T00:17:51.065Z,1.77
2023-04-17T00:20:23.860Z,1.35
2023-04-17T00:22:57.096Z,1.48
2023-04-17T00:25:33.935Z,1.62
2023-04-17T00:28:04.823Z,1.40
2023-04-17T00:30:37.288Z,1.30
2023-04-17T00:33:11.881Z,1.48
2023-04-17T00:35:42.726Z,1.65
2023-04-17T00:38:19.280Z,1.10
2023-04-17T00:40:46.771Z,1.30
2023-04-17T00:43:14.654Z,1.33
2023-04-17T00:45:43.688Z,1.52
2023-04-17T00:48:15.697Z,1.80
2023-04-17T00:50:45.805Z,1.12
2023-04-17T00:53:16.180Z,1.48
2023-04-17T00:55:52.269Z,1.30
2023-04-17T00:58:23.158Z,1.10
2023-04-17T01:00:56.924Z,1.37
2023-04-17T01:03:24.974Z,1.20
2023-04-17T01:05:58.877Z,1.45
2023-04-17T01:08:37.209Z,1.20
2023-04-17T01:11:07.579Z,1.10
2023-04-17T01:13:44.593Z,1.27
2023-04-17T01:16:19.305Z,1.12
2023-04-17T01:18:54.330Z,1.20
2023-04-17T01:21:26.399Z,1.23
2023-04-17T01:23:54.357Z,1.10
2023-04-17T01:26:34.382Z,1.15
2023-04-17T01:29:07.479Z,1.35
2023-04-17T01:34:12.305Z,1.00
2023-04-17T01:36:45.955Z,1.20
2023-04-17T01:39:19.543Z,1.20
2023-04-17T01:41:58.077Z,1.20
2023-04-17T01:44:30.588Z,1.10
2023-04-17T01:47:01.039Z,1.17
2023-04-17T01:49:33.038Z,1.15
2023-04-17T01:52:11.245Z,1.10
2023-04-17T01:54:45.374Z,1.20
2023-04-17T01:57:16.488Z,1.17
2023-04-17T01:59:47.524Z,1.20
2023-04-17T02:02:17.772Z,1.40
2023-04-17T02:04:51.780Z,0.90
2023-04-17T02:07:27.069Z,0.98
2023-04-17T02:10:01.757Z,1.23
2023-04-17T02:12:29.471Z,1.02
2023-04-17T02:15:00.838Z,1.30
2023-04-17T02:17:33.959Z,1.20
2023-04-17T02:22:34.752Z,1.00
2023-04-17T02:25:02.356Z,1.10
2023-04-17T02:27:33.365Z,1.02
2023-04-17T02:30:03.733Z,1.27
2023-04-17T02:32:36.652Z,1.00
2023-04-17T02:35:08.751Z,1.10
2023-04-17T02:37:44.778Z,1.12
2023-04-17T02:40:15.408Z,0.90
2023-04-17T02:42:46.499Z,1.20
2023-04-17T02:45:15.296Z,0.90
2023-04-17T02:47:47.327Z,1.10
2023-04-17T02:50:18.460Z,0.90
2023-04-17T02:52:54.049Z,1.00
2023-04-17T02:55:25.455Z,1.00
2023-04-17T02:57:59.171Z,0.95
2023-04-17T03:00:33.234Z,1.10
2023-04-17T03:03:08.972Z,1.30
2023-04-17T03:05:42.311Z,0.90
2023-04-17T03:08:15.674Z,0.90
2023-04-17T03:10:47.232Z,0.88
2023-04-17T03:13:18.240Z,0.82
2023-04-17T03:15:48.906Z,1.00
2023-04-17T03:18:19.785Z,1.30
2023-04-17T03:20:53.871Z,1.05
2023-04-17T03:23:24.315Z,0.95
2023-04-17T03:25:54.852Z,1.00
2023-04-17T03:28:25.201Z,1.23
2023-04-17T03:30:58.593Z,1.00
2023-04-17T03:33:35.399Z,1.10
2023-04-17T03:36:05.869Z,1.00
2023-04-17T03:38:34.595Z,0.90
2023-04-17T03:41:05.165Z,1.20
2023-04-17T03:43:41.699Z,0.90
2023-04-17T03:46:12.825Z,1.00
2023-04-17T03:48:40.304Z,1.00
2023-04-17T03:51:17.141Z,1.00
2023-04-17T03:53:47.540Z,0.90
2023-04-17T03:56:21.192Z,0.90
2023-04-17T03:58:50.975Z,1.00
2023-04-17T04:01:19.036Z,0.90
2023-04-17T04:03:53.461Z,0.95
2023-04-17T04:06:24.730Z,0.90
2023-04-17T04:08:58.615Z,1.12
2023-04-17T04:11:33.859Z,0.93
2023-04-17T04:14:09.980Z,1.00
2023-04-17T04:16:40.713Z,1.02
2023-04-17T04:19:08.257Z,0.90
2023-04-17T04:21:35.583Z,1.00
2023-04-17T04:24:08.962Z,1.00
2023-04-17T04:26:39.696Z,1.15
2023-04-17T04:29:07.393Z,0.80
2023-04-17T04:31:42.029Z,1.05
2023-04-17T04:34:09.695Z,0.80
2023-04-17T04:36:44.150Z,1.00
2023-04-17T04:39:20.925Z,0.90
2023-04-17T04:41:50.682Z,0.95
2023-04-17T04:44:21.782Z,1.05
2023-04-17T04:46:49.507Z,1.00
2023-04-17T04:49:17.847Z,1.10
2023-04-17T04:51:45.244Z,0.85
2023-04-17T04:54:18.747Z,0.90
2023-04-17T04:56:48.814Z,1.00
2023-04-17T04:59:23.290Z,0.93
2023-04-17T05:01:57.163Z,0.88
2023-04-17T05:04:25.051Z,1.00
2023-04-17T05:06:56.027Z,1.00
2023-04-17T05:09:26.734Z,0.80
2023-04-17T05:11:58.136Z,1.00
2023-04-17T05:14:32.426Z,0.95
2023-04-17T05:17:02.793Z,1.02
2023-04-17T05:19:30.837Z,1.02
2023-04-17T05:21:58.326Z,1.00
2023-04-17T05:24:28.370Z,0.93
2023-04-17T05:26:56.377Z,0.90
2023-04-17T05:29:24.094Z,0.93
2023-04-17T05:31:58.324Z,1.00
2023-04-17T05:34:29.210Z,1.02
2023-04-17T05:36:59.690Z,1.00
2023-04-17T05:39:32.747Z,1.20
2023-04-17T05:44:33.452Z,1.00
2023-04-17T05:47:04.043Z,1.10
2023-04-17T05:49:31.423Z,1.10
2023-04-17T05:51:58.940Z,1.15
2023-04-17T05:54:26.302Z,1.10
2023-04-17T05:56:57.086Z,1.20
2023-04-17T05:59:28.421Z,1.15
2023-04-17T06:02:05.647Z,1.42
2023-04-17T06:04:36.835Z,1.23
2023-04-17T06:07:08.142Z,2.25
2023-04-17T06:09:39.194Z,3.78
2023-04-17T06:12:08.010Z,4.25
2023-04-17T06:14:35.387Z,6.80
2023-04-17T06:17:05.864Z,8.85
2023-04-17T06:19:37.059Z,8.32
2023-04-17T06:22:07.384Z,8.32
2023-04-17T06:24:37.695Z,7.70
2023-04-17T06:27:08.275Z,7.45
2023-04-17T06:29:37.065Z,7.10
2023-04-17T06:32:05.385Z,7.50
2023-04-17T06:34:41.299Z,7.15
2023-04-17T06:37:22.693Z,7.12
2023-04-17T06:39:56.320Z,7.45
2023-04-17T06:42:29.478Z,6.85
2023-04-17T06:47:40.380Z,5.62
2023-04-17T06:50:08.949Z,6.30
2023-04-17T06:52:39.527Z,5.93
2023-04-17T06:55:13.670Z,5.87
2023-04-17T06:57:46.892Z,5.55
2023-04-17T07:00:19.386Z,5.45
2023-04-17T07:02:47.929Z,4.95
2023-04-17T07:05:18.593Z,5.35
2023-04-17T07:07:46.011Z,5.12
2023-04-17T07:10:19.213Z,5.10
2023-04-17T07:12:54.042Z,4.93
2023-04-17T07:15:21.502Z,5.53
2023-04-17T07:17:49.096Z,5.10
2023-04-17T07:20:22.862Z,4.43
2023-04-17T07:23:00.761Z,4.65
2023-04-17T07:25:30.353Z,4.15
2023-04-17T07:28:04.582Z,4.57
2023-04-17T07:30:34.935Z,4.70
2023-04-17T07:33:08.743Z,4.43
2023-04-17T07:35:45.327Z,4.47
2023-04-17T07:38:19.584Z,4.78
2023-04-17T07:40:50.067Z,4.68
2023-04-17T07:43:24.531Z,4.15
2023-04-17T07:45:52.157Z,4.00
2023-04-17T07:48:22.898Z,4.28
2023-04-17T07:50:50.873Z,3.90
2023-04-17T07:53:24.914Z,3.83
2023-04-17T07:56:04.304Z,3.78
2023-04-17T07:58:40.349Z,4.00
2023-04-17T08:01:12.721Z,3.75
2023-04-17T08:03:49.270Z,3.33
2023-04-17T08:06:29.614Z,3.75
2023-04-17T08:08:57.125Z,4.00
2023-04-17T08:11:24.531Z,3.62
2023-04-17T08:13:58.606Z,3.78
2023-04-17T08:16:25.565Z,3.60
2023-04-17T08:18:58.544Z,3.85
2023-04-17T08:21:29.217Z,3.95
2023-04-17T08:24:00.184Z,3.75
2023-04-17T08:26:29.585Z,3.50
2023-04-17T08:28:58.500Z,3.40
2023-04-17T08:31:28.677Z,4.07
2023-04-17T08:34:10.455Z,4.60
2023-04-17T08:36:56.798Z,4.72
2023-04-17T08:39:33.527Z,4.82
2023-04-17T08:42:18.415Z,5.00
2023-04-17T08:44:57.262Z,5.00
2023-04-17T08:47:31.004Z,4.78
2023-04-17T08:50:17.462Z,5.20
2023-04-17T08:52:45.718Z,5.03
2023-04-17T08:55:22.002Z,4.50
2023-04-17T08:58:03.174Z,4.28
2023-04-17T09:00:39.835Z,3.87
2023-04-17T09:03:09.429Z,3.80
2023-04-17T09:05:37.718Z,3.70
2023-04-17T09:08:13.164Z,3.75
2023-04-17T09:10:55.823Z,4.47
2023-04-17T09:13:28.068Z,3.47
2023-04-17T09:16:22.411Z,3.87
2023-04-17T09:19:13.116Z,3.33
2023-04-17T09:21:46.547Z,2.90
2023-04-17T09:24:17.095Z,3.40
2023-04-17T09:26:47.386Z,3.33
2023-04-17T09:29:25.554Z,3.10
2023-04-17T09:31:56.285Z,3.33
2023-04-17T09:34:26.485Z,2.87
2023-04-17T09:36:54.688Z,3.60
2023-04-17T09:39:27.531Z,3.58
2023-04-17T09:42:19.464Z,3.50
2023-04-17T09:44:49.797Z,3.25
2023-04-17T09:47:17.871Z,2.97
2023-04-17T09:49:51.537Z,3.03
2023-04-17T09:52:23.087Z,2.83
2023-04-17T09:55:01.613Z,3.65
2023-04-17T09:57:35.752Z,3.00
2023-04-17T10:00:11.187Z,2.90
2023-04-17T10:02:43.422Z,4.00
2023-04-17T10:05:22.540Z,3.80
2023-04-17T10:07:53.579Z,4.12
2023-04-17T10:10:29.543Z,3.87
2023-04-17T10:13:05.893Z,3.33
2023-04-17T10:15:38.842Z,3.97
2023-04-17T10:18:25.541Z,3.30
2023-04-17T10:20:56.292Z,3.45
2023-04-17T10:23:37.092Z,3.97
2023-04-17T10:26:34.408Z,3.75
2023-04-17T10:29:11.654Z,3.45
2023-04-17T10:32:11.501Z,3.20
2023-04-17T10:34:46.377Z,3.00
2023-04-17T10:37:25.471Z,3.05
2023-04-17T10:39:59.030Z,3.37
2023-04-17T10:42:33.544Z,2.42
2023-04-17T10:45:09.048Z,3.10
2023-04-17T10:47:42.971Z,3.35
2023-04-17T10:50:17.018Z,3.10
2023-04-17T10:52:47.621Z,2.97
2023-04-17T10:55:32.756Z,2.83
2023-04-17T10:58:22.675Z,2.92
2023-04-17T11:01:09.348Z,3.47
2023-04-17T11:03:44.574Z,2.85
2023-04-17T11:06:25.447Z,2.60
2023-04-17T11:09:09.381Z,3.03
2023-04-17T11:11:46.099Z,3.62
2023-04-17T11:14:19.281Z,3.05
2023-04-17T11:16:52.776Z,2.92
2023-04-17T11:19:24.289Z,2.78
2023-04-17T11:21:56.395Z,3.12
2023-04-17T11:24:30.822Z,2.50
2023-04-17T11:27:03.189Z,3.47
2023-04-17T11:29:33.807Z,2.70
2023-04-17T11:32:04.471Z,2.95
2023-04-17T11:34:38.223Z,2.78
2023-04-17T11:37:11.983Z,2.78
2023-04-17T11:39:49.602Z,2.62
2023-04-17T11:42:29.209Z,2.65
2023-04-17T11:45:07.153Z,3.47
2023-04-17T11:47:40.972Z,2.62
2023-04-17T11:50:23.221Z,3.00
2023-04-17T11:52:56.332Z,2.70
2023-04-17T11:58:02.113Z,2.58
2023-04-17T12:00:29.310Z,2.90
2023-04-17T12:03:04.717Z,2.92
2023-04-17T12:05:34.769Z,3.00
2023-04-17T12:08:11.519Z,2.65
2023-04-17T12:10:42.812Z,2.53
2023-04-17T12:13:13.360Z,2.37
2023-04-17T12:15:40.459Z,2.55
2023-04-17T12:18:12.575Z,2.30
2023-04-17T12:20:47.342Z,2.30
2023-04-17T12:23:20.363Z,2.33
2023-04-17T12:25:48.205Z,2.87
2023-04-17T12:28:18.265Z,2.60
2023-04-17T12:30:45.196Z,2.28
2023-04-17T12:33:18.084Z,2.37
2023-04-17T12:35:54.168Z,2.83
2023-04-17T12:38:27.191Z,2.58
2023-04-17T12:43:27.827Z,2.47
2023-04-17T12:45:54.943Z,2.40
2023-04-17T12:48:29.792Z,2.83
2023-04-17T12:50:59.070Z,2.85
2023-04-17T12:53:34.994Z,2.50
2023-04-17T12:56:05.585Z,2.58
2023-04-17T12:58:43.015Z,2.45
2023-04-17T13:01:14.013Z,2.15
2023-04-17T13:03:44.736Z,2.60
2023-04-17T13:06:15.915Z,2.47
2023-04-17T13:08:43.832Z,2.65
2023-04-17T13:11:16.835Z,2.37
2023-04-17T13:16:21.713Z,2.40
2023-04-17T13:18:55.553Z,2.67
2023-04-17T13:21:31.169Z,2.67
2023-04-17T13:23:58.269Z,2.25
2023-04-17T13:26:28.997Z,2.45
2023-04-17T13:28:58.004Z,2.92
2023-04-17T13:31:30.802Z,2.37
2023-04-17T13:34:01.432Z,2.40
2023-04-17T13:36:29.352Z,2.45
2023-04-17T13:39:04.122Z,2.40
2023-04-17T13:41:38.130Z,2.87
2023-04-17T13:44:09.383Z,2.22
2023-04-17T13:46:40.432Z,2.12
2023-04-17T13:49:12.375Z,2.37
2023-04-17T13:51:42.868Z,2.25
2023-04-17T13:54:10.228Z,2.70
2023-04-17T13:56:49.809Z,2.60
2023-04-17T13:59:22.218Z,2.70
2023-04-17T14:01:49.306Z,2.37
2023-04-17T14:04:17.110Z,2.25
2023-04-17T14:06:47.440Z,2.47
2023-04-17T14:09:15.232Z,2.30
2023-04-17T14:11:48.381Z,2.15
2023-04-17T14:14:18.733Z,2.40
2023-04-17T14:16:49.177Z,2.70
2023-04-17T14:19:25.241Z,2.50
2023-04-17T14:21:56.272Z,2.65
2023-04-17T14:24:29.075Z,2.87
2023-04-17T14:27:00.121Z,2.55
2023-04-17T14:29:28.055Z,2.53
2023-04-17T14:31:59.901Z,2.30
2023-04-17T14:34:36.069Z,2.20
2023-04-17T14:37:06.313Z,2.33
2023-04-17T14:39:42.190Z,2.42
2023-04-17T14:42:09.276Z,2.37
2023-04-17T14:44:39.648Z,1.98
2023-04-17T14:47:10.960Z,2.28
2023-04-17T14:49:47.015Z,2.28
2023-04-17T14:52:22.980Z,2.40
2023-04-17T14:54:53.776Z,2.25
2023-04-17T14:57:25.297Z,2.72
2023-04-17T14:59:53.304Z,2.25
2023-04-17T15:02:24.794Z,2.70
2023-04-17T15:04:51.959Z,2.60
2023-04-17T15:07:19.028Z,1.95
2023-04-17T15:09:49.390Z,2.20
2023-04-17T15:12:21.749Z,2.15
2023-04-17T15:14:49.174Z,2.30
2023-04-17T15:17:25.810Z,2.47
2023-04-17T15:19:55.921Z,2.42
2023-04-17T15:22:32.008Z,2.47
2023-04-17T15:25:03.032Z,2.30
2023-04-17T15:27:39.823Z,2.10
2023-04-17T15:30:14.925Z,2.25
2023-04-17T15:32:42.650Z,2.30
2023-04-17T15:35:18.744Z,2.10
2023-04-17T15:37:50.806Z,2.40
2023-04-17T15:40:23.512Z,2.30
2023-04-17T15:42:51.221Z,1.98
2023-04-17T15:45:21.707Z,2.17
2023-04-17T15:47:49.246Z,2.10
2023-04-17T15:50:21.933Z,2.33
2023-04-17T15:52:49.516Z,2.20
2023-04-17T15:55:19.663Z,2.15
2023-04-17T15:57:53.630Z,2.12
2023-04-17T16:00:24.065Z,2.30
2023-04-17T16:02:52.007Z,2.10
2023-04-17T16:05:19.653Z,2.45
2023-04-17T16:07:51.038Z,2.42
2023-04-17T16:10:27.764Z,2.28
2023-04-17T16:13:01.234Z,2.22
2023-04-17T16:15:34.293Z,2.60
2023-04-17T16:20:37.874Z,2.33
2023-04-17T16:23:15.470Z,2.75
2023-04-17T16:25:45.995Z,2.40
2023-04-17T16:28:16.984Z,2.35
2023-04-17T16:30:56.169Z,2.37
2023-04-17T16:33:26.646Z,2.12
2023-04-17T16:35:57.486Z,2.08
2023-04-17T16:38:31.116Z,2.10
2023-04-17T16:41:12.879Z,2.17
2023-04-17T16:43:49.647Z,2.30
2023-04-17T16:46:26.129Z,2.15
2023-04-17T16:49:02.441Z,2.20
2023-04-17T16:51:33.155Z,2.30
2023-04-17T16:54:03.257Z,2.40
2023-04-17T16:56:35.801Z,2.65
2023-04-17T16:59:05.820Z,3.03
2023-04-17T17:01:36.285Z,2.67
2023-04-17T17:04:07.388Z,2.55
2023-04-17T17:06:43.512Z,2.87
2023-04-17T17:09:17.546Z,2.20
2023-04-17T17:11:51.269Z,2.12
2023-04-17T17:14:22.929Z,2.35
2023-04-17T17:16:55.170Z,1.95
2023-04-17T17:19:27.182Z,2.00
2023-04-17T17:21:57.847Z,2.00
2023-04-17T17:24:35.115Z,2.20
2023-04-17T17:27:05.817Z,2.10
2023-04-17T17:29:34.372Z,2.50
2023-04-17T17:32:08.125Z,2.40
2023-04-17T17:34:36.302Z,2.15
2023-04-17T17:37:09.499Z,2.60
2023-04-17T17:39:43.757Z,2.45
2023-04-17T17:42:19.255Z,2.65
2023-04-17T17:44:49.697Z,2.30
2023-04-17T17:47:23.604Z,2.50
2023-04-17T17:50:00.361Z,2.83
2023-04-17T17:52:30.639Z,2.85
2023-04-17T17:55:04.275Z,2.62
2023-04-17T17:57:48.965Z,2.80
2023-04-17T18:00:26.483Z,2.80
2023-04-17T18:02:55.747Z,2.58
2023-04-17T18:05:27.699Z,2.72
2023-04-17T18:07:58.851Z,2.60
2023-04-17T18:10:35.244Z,2.50
2023-04-17T18:13:14.619Z,2.85
2023-04-17T18:15:44.963Z,2.87
2023-04-17T18:18:12.702Z,2.90
2023-04-17T18:20:43.120Z,4.15
2023-04-17T18:23:13.436Z,4.57
2023-04-17T18:25:44.512Z,5.97
2023-04-17T18:28:18.309Z,5.70
2023-04-17T18:30:52.086Z,5.40
2023-04-17T18:33:19.931Z,5.20
2023-04-17T18:35:53.796Z,5.25
2023-04-17T18:38:27.523Z,5.12
2023-04-17T18:40:55.813Z,5.03
2023-04-17T18:43:32.106Z,4.82
2023-04-17T18:46:11.673Z,5.50
2023-04-17T18:48:42.690Z,4.75
2023-04-17T18:51:14.328Z,4.62
2023-04-17T18:53:50.331Z,4.82
2023-04-17T18:56:21.637Z,4.68
2023-04-17T18:58:55.408Z,4.93
2023-04-17T19:01:29.029Z,4.57
2023-04-17T19:03:58.659Z,4.55
2023-04-17T19:06:32.524Z,4.35
2023-04-17T19:09:05.920Z,4.50
2023-04-17T19:11:39.645Z,4.97
2023-04-17T19:14:10.811Z,4.20
2023-04-17T19:16:50.714Z,4.62
2023-04-17T19:19:19.255Z,4.10
2023-04-17T19:21:47.191Z,4.57
2023-04-17T19:24:19.686Z,3.87
2023-04-17T19:26:48.038Z,5.28
2023-04-17T19:29:18.497Z,4.43
2023-04-17T19:31:49.162Z,4.15
2023-04-17T19:34:20.281Z,4.45
2023-04-17T19:36:54.538Z,5.10
2023-04-17T19:39:27.547Z,4.47
2023-04-17T19:42:01.536Z,4.93
2023-04-17T19:44:35.461Z,4.35
2023-04-17T19:47:06.296Z,4.90
2023-04-17T19:49:39.802Z,5.00
2023-04-17T19:52:14.191Z,4.90
2023-04-17T19:54:44.353Z,4.68
2023-04-17T19:57:14.611Z,5.70
2023-04-17T19:59:48.962Z,5.45
2023-04-17T20:02:16.944Z,5.50
2023-04-17T20:04:52.966Z,5.90
2023-04-17T20:07:28.265Z,5.57
2023-04-17T20:09:56.036Z,5.62
2023-04-17T20:12:26.456Z,5.60
2023-04-17T20:14:57.263Z,5.68
2023-04-17T20:17:28.014Z,5.80
2023-04-17T20:19:56.182Z,5.28
2023-04-17T20:22:29.984Z,5.85
2023-04-17T20:25:04.237Z,5.43
2023-04-17T20:27:42.013Z,6.40
2023-04-17T20:30:15.686Z,6.00
2023-04-17T20:32:51.239Z,6.03
2023-04-17T20:35:24.786Z,6.50
2023-04-17T20:37:59.150Z,6.43
2023-04-17T20:40:29.759Z,6.15
2023-04-17T20:43:04.489Z,6.50
2023-04-17T20:45:33.680Z,6.15
2023-04-17T20:48:04.975Z,6.30
2023-04-17T20:50:32.530Z,5.90
2023-04-17T20:53:04.864Z,6.32
2023-04-17T20:55:33.505Z,6.05
2023-04-17T20:58:03.162Z,6.30
2023-04-17T21:00:33.669Z,6.30
2023-04-17T21:03:15.856Z,6.60
2023-04-17T21:05:50.240Z,6.82
2023-04-17T21:08:21.612Z,6.47
2023-04-17T21:10:51.924Z,6.35
2023-04-17T21:13:26.984Z,6.28
2023-04-17T21:15:54.422Z,14.52
2023-04-17T21:18:25.731Z,8.90
2023-04-17T21:20:55.891Z,8.25
2023-04-17T21:23:23.538Z,8.75
2023-04-17T21:25:54.430Z,9.50
2023-04-17T21:28:30.940Z,9.73
2023-04-17T21:31:01.724Z,10.75
2023-04-17T21:33:34.836Z,10.65
2023-04-17T21:36:03.332Z,10.70
2023-04-17T21:38:34.051Z,10.18
2023-04-17T21:41:02.922Z,11.05
2023-04-17T21:43:36.830Z,9.93
2023-04-17T21:46:13.600Z,9.25
2023-04-17T21:48:47.110Z,9.82
2023-04-17T21:51:18.928Z,9.50
2023-04-17T21:53:49.441Z,10.32
2023-04-17T21:56:23.508Z,9.52
2023-04-17T21:58:53.789Z,8.90
2023-04-17T22:01:23.766Z,9.35
2023-04-17T22:03:54.295Z,8.70
2023-04-17T22:06:26.985Z,8.50
2023-04-17T22:08:57.844Z,8.93
2023-04-17T22:11:31.559Z,8.20
2023-04-17T22:14:07.714Z,7.70
2023-04-17T22:16:44.329Z,7.90
2023-04-17T22:19:12.501Z,7.47
2023-04-17T22:21:46.862Z,7.30
2023-04-17T22:24:14.433Z,7.95
2023-04-17T22:26:47.228Z,7.78
2023-04-17T22:29:19.997Z,8.15
2023-04-17T22:31:50.718Z,7.82
2023-04-17T22:34:24.367Z,7.70
2023-04-17T22:36:57.919Z,7.37
2023-04-17T22:39:28.572Z,6.93
2023-04-17T22:42:01.909Z,7.43
2023-04-17T22:44:34.005Z,7.20
2023-04-17T22:47:03.455Z,6.70
2023-04-17T22:49:34.369Z,7.22
2023-04-17T22:52:07.050Z,6.55
2023-04-17T22:54:35.847Z,6.32
2023-04-17T22:57:10.202Z,6.25
2023-04-17T22:59:38.109Z,7.30
2023-04-17T23:02:05.504Z,6.62
2023-04-17T23:04:33.139Z,6.45
2023-04-17T23:07:07.278Z,6.65
2023-04-17T23:09:38.187Z,6.45
2023-04-17T23:12:09.645Z,6.57
2023-04-17T23:14:40.495Z,6.47
2023-04-17T23:17:11.426Z,6.37
2023-04-17T23:19:42.011Z,6.28
2023-04-17T23:22:13.327Z,6.00
2023-04-17T23:24:40.823Z,6.78
2023-04-17T23:27:14.717Z,6.32
2023-04-17T23:29:46.641Z,6.25
2023-04-17T23:32:15.554Z,6.12
2023-04-17T23:34:45.438Z,5.68
2023-04-17T23:37:17.962Z,5.50
2023-04-17T23:39:51.849Z,6.07
2023-04-17T23:42:23.204Z,6.43
2023-04-17T23:44:54.075Z,6.00
2023-04-17T23:47:33.461Z,6.30
2023-04-17T23:50:09.265Z,5.97
2023-04-17T23:52:42.549Z,5.30
2023-04-17T23:55:20.648Z,5.22
2023-04-17T23:57:52.515Z,5.65
